sensor_id;sensor_type;location;lat;lon;timestamp;temperature;humidity
15241;DHT22;7723;52.170;9.978;2022-07-03T00:01:58;18.40;1.00
15241;DHT22;7723;52.170;9.978;2022-07-03T00:04:25;18.30;1.00
15241;DHT22;7723;52.170;9.978;2022-07-03T00:06:54;18.30;1.00
15241;DHT22;7723;52.170;9.978;2022-07-03T00:09:22;18.10;1.00
15241;DHT22;7723;52.170;9.978;2022-07-03T00:11:49;17.90;1.00
15241;DHT22;7723;52.170;9.978;2022-07-03T00:14:16;17.90;1.00
15241;DHT22;7723;52.170;9.978;2022-07-03T00:16:44;17.80;1.00
15241;DHT22;7723;52.170;9.978;2022-07-03T00:19:12;17.80;1.00
15241;DHT22;7723;52.170;9.978;2022-07-03T00:21:44;17.80;1.00
15241;DHT22;7723;52.170;9.978;2022-07-03T00:24:22;17.70;1.00
15241;DHT22;7723;52.170;9.978;2022-07-03T00:26:51;17.60;1.00
15241;DHT22;7723;52.170;9.978;2022-07-03T00:29:21;17.50;1.00
15241;DHT22;7723;52.170;9.978;2022-07-03T00:31:49;17.40;1.00
15241;DHT22;7723;52.170;9.978;2022-07-03T00:34:17;17.30;1.00
15241;DHT22;7723;52.170;9.978;2022-07-03T00:36:46;17.10;1.00
15241;DHT22;7723;52.170;9.978;2022-07-03T00:39:14;17.20;4.10
15241;DHT22;7723;52.170;9.978;2022-07-03T00:41:44;17.10;4.50
15241;DHT22;7723;52.170;9.978;2022-07-03T00:44:12;17.00;4.90
15241;DHT22;7723;52.170;9.978;2022-07-03T00:46:41;16.90;7.00
15241;DHT22;7723;52.170;9.978;2022-07-03T00:49:10;16.80;8.60
15241;DHT22;7723;52.170;9.978;2022-07-03T00:51:38;16.80;9.40
15241;DHT22;7723;52.170;9.978;2022-07-03T00:54:08;16.80;10.00
15241;DHT22;7723;52.170;9.978;2022-07-03T00:56:39;16.70;10.80
15241;DHT22;7723;52.170;9.978;2022-07-03T00:59:08;16.60;12.80
15241;DHT22;7723;52.170;9.978;2022-07-03T01:01:37;16.60;13.00
15241;DHT22;7723;52.170;9.978;2022-07-03T01:04:14;16.60;13.50
15241;DHT22;7723;52.170;9.978;2022-07-03T01:06:52;16.50;14.20
15241;DHT22;7723;52.170;9.978;2022-07-03T01:09:34;16.50;16.70
15241;DHT22;7723;52.170;9.978;2022-07-03T01:12:07;16.40;18.20
15241;DHT22;7723;52.170;9.978;2022-07-03T01:14:47;16.40;19.10
15241;DHT22;7723;52.170;9.978;2022-07-03T01:17:23;16.40;19.90
15241;DHT22;7723;52.170;9.978;2022-07-03T01:19:55;16.40;21.70
15241;DHT22;7723;52.170;9.978;2022-07-03T01:22:30;16.40;21.20
15241;DHT22;7723;52.170;9.978;2022-07-03T01:25:16;16.50;21.70
15241;DHT22;7723;52.170;9.978;2022-07-03T01:28:09;16.60;20.00
15241;DHT22;7723;52.170;9.978;2022-07-03T01:30:39;16.70;19.40
15241;DHT22;7723;52.170;9.978;2022-07-03T01:33:09;16.60;19.10
15241;DHT22;7723;52.170;9.978;2022-07-03T01:35:38;16.60;19.50
15241;DHT22;7723;52.170;9.978;2022-07-03T01:38:07;16.60;19.90
15241;DHT22;7723;52.170;9.978;2022-07-03T01:40:36;16.50;20.40
15241;DHT22;7723;52.170;9.978;2022-07-03T01:43:06;16.50;21.60
15241;DHT22;7723;52.170;9.978;2022-07-03T01:45:37;16.50;22.50
15241;DHT22;7723;52.170;9.978;2022-07-03T01:48:06;16.50;24.10
15241;DHT22;7723;52.170;9.978;2022-07-03T01:50:34;16.50;24.90
15241;DHT22;7723;52.170;9.978;2022-07-03T01:53:05;16.60;29.60
15241;DHT22;7723;52.170;9.978;2022-07-03T01:55:33;16.50;33.10
15241;DHT22;7723;52.170;9.978;2022-07-03T01:58:01;16.40;38.50
15241;DHT22;7723;52.170;9.978;2022-07-03T02:00:29;16.30;40.60
15241;DHT22;7723;52.170;9.978;2022-07-03T02:03:00;16.20;43.60
15241;DHT22;7723;52.170;9.978;2022-07-03T02:05:37;16.10;42.50
15241;DHT22;7723;52.170;9.978;2022-07-03T02:08:15;16.00;42.00
15241;DHT22;7723;52.170;9.978;2022-07-03T02:10:55;16.00;43.10
15241;DHT22;7723;52.170;9.978;2022-07-03T02:13:28;15.90;49.40
15241;DHT22;7723;52.170;9.978;2022-07-03T02:15:58;15.90;50.20
15241;DHT22;7723;52.170;9.978;2022-07-03T02:18:28;15.80;53.50
15241;DHT22;7723;52.170;9.978;2022-07-03T02:21:15;15.70;58.60
15241;DHT22;7723;52.170;9.978;2022-07-03T02:23:49;15.60;59.20
15241;DHT22;7723;52.170;9.978;2022-07-03T02:26:25;15.60;62.90
15241;DHT22;7723;52.170;9.978;2022-07-03T02:29:01;15.50;68.20
15241;DHT22;7723;52.170;9.978;2022-07-03T02:31:34;15.50;72.30
15241;DHT22;7723;52.170;9.978;2022-07-03T02:34:07;15.50;72.20
15241;DHT22;7723;52.170;9.978;2022-07-03T02:36:35;15.40;74.60
15241;DHT22;7723;52.170;9.978;2022-07-03T02:39:09;15.40;78.90
15241;DHT22;7723;52.170;9.978;2022-07-03T02:41:46;15.30;82.10
15241;DHT22;7723;52.170;9.978;2022-07-03T02:44:23;15.30;86.00
15241;DHT22;7723;52.170;9.978;2022-07-03T02:46:59;15.20;89.80
15241;DHT22;7723;52.170;9.978;2022-07-03T02:49:53;15.10;91.90
15241;DHT22;7723;52.170;9.978;2022-07-03T02:52:32;15.10;92.30
15241;DHT22;7723;52.170;9.978;2022-07-03T02:55:04;15.10;92.90
15241;DHT22;7723;52.170;9.978;2022-07-03T02:57:38;15.10;93.40
15241;DHT22;7723;52.170;9.978;2022-07-03T03:00:08;15.00;94.30
15241;DHT22;7723;52.170;9.978;2022-07-03T03:02:52;15.00;95.50
15241;DHT22;7723;52.170;9.978;2022-07-03T03:05:30;15.00;95.50
15241;DHT22;7723;52.170;9.978;2022-07-03T03:08:11;15.00;95.30
15241;DHT22;7723;52.170;9.978;2022-07-03T03:10:40;15.00;96.90
15241;DHT22;7723;52.170;9.978;2022-07-03T03:13:10;15.10;96.40
15241;DHT22;7723;52.170;9.978;2022-07-03T03:15:39;15.20;97.30
15241;DHT22;7723;52.170;9.978;2022-07-03T03:18:12;15.20;96.90
15241;DHT22;7723;52.170;9.978;2022-07-03T03:20:42;15.30;95.30
15241;DHT22;7723;52.170;9.978;2022-07-03T03:23:19;15.30;95.10
15241;DHT22;7723;52.170;9.978;2022-07-03T03:25:51;15.40;94.70
15241;DHT22;7723;52.170;9.978;2022-07-03T03:28:18;15.50;93.80
15241;DHT22;7723;52.170;9.978;2022-07-03T03:30:46;15.60;93.50
15241;DHT22;7723;52.170;9.978;2022-07-03T03:33:14;15.60;92.50
15241;DHT22;7723;52.170;9.978;2022-07-03T03:35:43;15.60;94.10
15241;DHT22;7723;52.170;9.978;2022-07-03T03:38:11;15.60;94.20
15241;DHT22;7723;52.170;9.978;2022-07-03T03:40:38;15.60;93.60
15241;DHT22;7723;52.170;9.978;2022-07-03T03:43:05;15.60;91.50
15241;DHT22;7723;52.170;9.978;2022-07-03T03:45:32;15.70;91.20
15241;DHT22;7723;52.170;9.978;2022-07-03T03:48:00;15.80;90.50
15241;DHT22;7723;52.170;9.978;2022-07-03T03:50:27;15.80;91.00
15241;DHT22;7723;52.170;9.978;2022-07-03T03:53:00;15.90;87.50
15241;DHT22;7723;52.170;9.978;2022-07-03T03:55:27;16.00;88.60
15241;DHT22;7723;52.170;9.978;2022-07-03T03:57:55;16.10;76.50
15241;DHT22;7723;52.170;9.978;2022-07-03T04:00:22;16.20;73.30
15241;DHT22;7723;52.170;9.978;2022-07-03T04:02:49;16.30;71.20
15241;DHT22;7723;52.170;9.978;2022-07-03T04:05:16;16.60;66.90
15241;DHT22;7723;52.170;9.978;2022-07-03T04:07:44;17.10;57.40
15241;DHT22;7723;52.170;9.978;2022-07-03T04:10:12;17.70;44.30
15241;DHT22;7723;52.170;9.978;2022-07-03T04:12:39;18.60;29.90
15241;DHT22;7723;52.170;9.978;2022-07-03T04:15:07;19.10;17.50
15241;DHT22;7723;52.170;9.978;2022-07-03T04:17:34;19.30;16.10
15241;DHT22;7723;52.170;9.978;2022-07-03T04:20:01;19.60;9.50
15241;DHT22;7723;52.170;9.978;2022-07-03T04:22:28;20.30;1.30
15241;DHT22;7723;52.170;9.978;2022-07-03T04:24:56;21.10;1.00
15241;DHT22;7723;52.170;9.978;2022-07-03T04:27:24;21.50;1.00
15241;DHT22;7723;52.170;9.978;2022-07-03T04:29:51;22.20;1.00
15241;DHT22;7723;52.170;9.978;2022-07-03T04:32:18;22.60;1.00
15241;DHT22;7723;52.170;9.978;2022-07-03T04:34:45;23.40;1.00
15241;DHT22;7723;52.170;9.978;2022-07-03T04:37:12;24.30;1.00
15241;DHT22;7723;52.170;9.978;2022-07-03T04:39:39;25.10;1.00
15241;DHT22;7723;52.170;9.978;2022-07-03T04:42:07;25.20;1.00
15241;DHT22;7723;52.170;9.978;2022-07-03T04:44:35;24.90;1.00
15241;DHT22;7723;52.170;9.978;2022-07-03T04:47:03;25.30;1.00
15241;DHT22;7723;52.170;9.978;2022-07-03T04:49:30;25.00;1.00
15241;DHT22;7723;52.170;9.978;2022-07-03T04:51:57;25.30;1.00
15241;DHT22;7723;52.170;9.978;2022-07-03T04:54:24;25.50;1.00
15241;DHT22;7723;52.170;9.978;2022-07-03T04:56:51;26.20;1.00
15241;DHT22;7723;52.170;9.978;2022-07-03T04:59:18;26.70;1.00
15241;DHT22;7723;52.170;9.978;2022-07-03T05:01:47;26.80;1.00
15241;DHT22;7723;52.170;9.978;2022-07-03T05:04:15;27.40;1.00
15241;DHT22;7723;52.170;9.978;2022-07-03T05:06:42;27.50;1.00
15241;DHT22;7723;52.170;9.978;2022-07-03T05:09:09;27.10;1.00
15241;DHT22;7723;52.170;9.978;2022-07-03T05:11:37;27.20;1.00
15241;DHT22;7723;52.170;9.978;2022-07-03T05:14:04;27.00;1.00
15241;DHT22;7723;52.170;9.978;2022-07-03T05:16:31;27.20;1.00
15241;DHT22;7723;52.170;9.978;2022-07-03T05:19:00;26.70;1.00
15241;DHT22;7723;52.170;9.978;2022-07-03T05:21:27;27.20;1.00
15241;DHT22;7723;52.170;9.978;2022-07-03T05:23:54;27.00;1.00
15241;DHT22;7723;52.170;9.978;2022-07-03T05:26:21;27.70;1.00
15241;DHT22;7723;52.170;9.978;2022-07-03T05:28:48;27.80;1.00
15241;DHT22;7723;52.170;9.978;2022-07-03T05:31:16;27.40;1.00
15241;DHT22;7723;52.170;9.978;2022-07-03T05:33:43;27.50;1.00
15241;DHT22;7723;52.170;9.978;2022-07-03T05:36:12;27.40;1.00
15241;DHT22;7723;52.170;9.978;2022-07-03T05:38:39;27.50;1.00
15241;DHT22;7723;52.170;9.978;2022-07-03T05:41:23;27.60;1.00
15241;DHT22;7723;52.170;9.978;2022-07-03T05:43:50;27.40;1.00
15241;DHT22;7723;52.170;9.978;2022-07-03T05:46:17;27.80;1.00
15241;DHT22;7723;52.170;9.978;2022-07-03T05:48:44;27.70;1.00
15241;DHT22;7723;52.170;9.978;2022-07-03T05:51:13;28.10;1.00
15241;DHT22;7723;52.170;9.978;2022-07-03T05:53:40;27.90;1.00
15241;DHT22;7723;52.170;9.978;2022-07-03T05:56:07;28.60;1.00
15241;DHT22;7723;52.170;9.978;2022-07-03T05:58:34;28.80;1.00
15241;DHT22;7723;52.170;9.978;2022-07-03T06:01:01;28.60;1.00
15241;DHT22;7723;52.170;9.978;2022-07-03T06:03:28;29.00;1.00
15241;DHT22;7723;52.170;9.978;2022-07-03T06:05:55;29.50;1.00
15241;DHT22;7723;52.170;9.978;2022-07-03T06:08:24;29.40;1.00
15241;DHT22;7723;52.170;9.978;2022-07-03T06:10:51;29.90;1.00
15241;DHT22;7723;52.170;9.978;2022-07-03T06:13:18;29.40;1.00
15241;DHT22;7723;52.170;9.978;2022-07-03T06:15:45;29.80;1.00
15241;DHT22;7723;52.170;9.978;2022-07-03T06:18:12;29.70;1.00
15241;DHT22;7723;52.170;9.978;2022-07-03T06:20:39;29.80;1.00
15241;DHT22;7723;52.170;9.978;2022-07-03T06:23:07;30.20;1.00
15241;DHT22;7723;52.170;9.978;2022-07-03T06:25:35;30.40;1.00
15241;DHT22;7723;52.170;9.978;2022-07-03T06:28:02;30.30;1.00
15241;DHT22;7723;52.170;9.978;2022-07-03T06:30:30;30.60;1.00
15241;DHT22;7723;52.170;9.978;2022-07-03T06:32:57;30.70;1.00
15241;DHT22;7723;52.170;9.978;2022-07-03T06:35:24;30.40;1.00
15241;DHT22;7723;52.170;9.978;2022-07-03T06:37:51;29.70;1.00
15241;DHT22;7723;52.170;9.978;2022-07-03T06:40:18;29.90;1.00
15241;DHT22;7723;52.170;9.978;2022-07-03T06:42:46;30.20;1.00
15241;DHT22;7723;52.170;9.978;2022-07-03T06:45:14;30.90;1.00
15241;DHT22;7723;52.170;9.978;2022-07-03T06:47:41;31.30;1.00
15241;DHT22;7723;52.170;9.978;2022-07-03T06:50:08;31.30;1.00
15241;DHT22;7723;52.170;9.978;2022-07-03T06:52:35;32.00;1.00
15241;DHT22;7723;52.170;9.978;2022-07-03T06:55:03;32.00;1.00
15241;DHT22;7723;52.170;9.978;2022-07-03T06:57:31;31.70;1.00
15241;DHT22;7723;52.170;9.978;2022-07-03T06:59:59;31.70;1.00
15241;DHT22;7723;52.170;9.978;2022-07-03T07:02:26;31.50;1.00
15241;DHT22;7723;52.170;9.978;2022-07-03T07:04:54;31.30;1.00
15241;DHT22;7723;52.170;9.978;2022-07-03T07:07:21;30.90;1.00
15241;DHT22;7723;52.170;9.978;2022-07-03T07:09:48;30.30;1.00
15241;DHT22;7723;52.170;9.978;2022-07-03T07:12:15;29.60;1.00
15241;DHT22;7723;52.170;9.978;2022-07-03T07:14:42;29.20;1.00
15241;DHT22;7723;52.170;9.978;2022-07-03T07:17:11;29.60;1.00
15241;DHT22;7723;52.170;9.978;2022-07-03T07:19:38;29.00;1.00
15241;DHT22;7723;52.170;9.978;2022-07-03T07:22:05;28.70;1.00
15241;DHT22;7723;52.170;9.978;2022-07-03T07:24:33;28.70;1.00
15241;DHT22;7723;52.170;9.978;2022-07-03T07:27:00;28.50;1.00
15241;DHT22;7723;52.170;9.978;2022-07-03T07:29:27;28.30;1.00
15241;DHT22;7723;52.170;9.978;2022-07-03T07:31:54;28.70;1.00
15241;DHT22;7723;52.170;9.978;2022-07-03T07:34:23;28.90;1.00
15241;DHT22;7723;52.170;9.978;2022-07-03T07:36:50;29.10;1.00
15241;DHT22;7723;52.170;9.978;2022-07-03T07:39:17;29.90;1.00
15241;DHT22;7723;52.170;9.978;2022-07-03T07:41:44;30.20;1.00
15241;DHT22;7723;52.170;9.978;2022-07-03T07:44:11;30.20;1.00
15241;DHT22;7723;52.170;9.978;2022-07-03T07:46:38;29.80;1.00
15241;DHT22;7723;52.170;9.978;2022-07-03T07:49:06;30.10;1.00
15241;DHT22;7723;52.170;9.978;2022-07-03T07:51:34;30.60;1.00
15241;DHT22;7723;52.170;9.978;2022-07-03T07:54:01;30.90;1.00
15241;DHT22;7723;52.170;9.978;2022-07-03T07:56:28;31.70;1.00
15241;DHT22;7723;52.170;9.978;2022-07-03T07:58:56;32.30;1.00
15241;DHT22;7723;52.170;9.978;2022-07-03T08:01:23;32.20;1.00
15241;DHT22;7723;52.170;9.978;2022-07-03T08:04:07;31.40;1.00
15241;DHT22;7723;52.170;9.978;2022-07-03T08:06:53;30.60;1.00
15241;DHT22;7723;52.170;9.978;2022-07-03T08:09:20;30.30;1.00
15241;DHT22;7723;52.170;9.978;2022-07-03T08:11:47;29.90;1.00
15241;DHT22;7723;52.170;9.978;2022-07-03T08:14:14;29.30;1.00
15241;DHT22;7723;52.170;9.978;2022-07-03T08:16:41;29.40;1.00
15241;DHT22;7723;52.170;9.978;2022-07-03T08:19:10;30.00;1.00
15241;DHT22;7723;52.170;9.978;2022-07-03T08:21:37;30.70;1.00
15241;DHT22;7723;52.170;9.978;2022-07-03T08:24:06;30.80;1.00
15241;DHT22;7723;52.170;9.978;2022-07-03T08:26:33;30.30;1.00
15241;DHT22;7723;52.170;9.978;2022-07-03T08:29:00;30.10;1.00
15241;DHT22;7723;52.170;9.978;2022-07-03T08:31:27;29.60;1.00
15241;DHT22;7723;52.170;9.978;2022-07-03T08:33:55;29.90;1.00
15241;DHT22;7723;52.170;9.978;2022-07-03T08:36:22;30.00;1.00
15241;DHT22;7723;52.170;9.978;2022-07-03T08:38:49;30.80;1.00
15241;DHT22;7723;52.170;9.978;2022-07-03T08:41:19;31.70;1.00
15241;DHT22;7723;52.170;9.978;2022-07-03T08:43:47;32.60;1.00
15241;DHT22;7723;52.170;9.978;2022-07-03T08:46:16;33.00;1.00
15241;DHT22;7723;52.170;9.978;2022-07-03T08:48:45;33.30;1.00
15241;DHT22;7723;52.170;9.978;2022-07-03T08:51:13;33.10;1.00
15241;DHT22;7723;52.170;9.978;2022-07-03T08:53:41;33.10;1.00
15241;DHT22;7723;52.170;9.978;2022-07-03T08:56:10;32.90;1.00
15241;DHT22;7723;52.170;9.978;2022-07-03T08:58:39;32.80;1.00
15241;DHT22;7723;52.170;9.978;2022-07-03T09:01:06;33.40;1.00
15241;DHT22;7723;52.170;9.978;2022-07-03T09:03:35;33.00;1.00
15241;DHT22;7723;52.170;9.978;2022-07-03T09:06:03;33.40;1.00
15241;DHT22;7723;52.170;9.978;2022-07-03T09:08:31;33.80;1.00
15241;DHT22;7723;52.170;9.978;2022-07-03T09:10:59;32.30;1.00
15241;DHT22;7723;52.170;9.978;2022-07-03T09:13:27;33.00;1.00
15241;DHT22;7723;52.170;9.978;2022-07-03T09:15:56;32.60;1.00
15241;DHT22;7723;52.170;9.978;2022-07-03T09:18:37;32.90;1.00
15241;DHT22;7723;52.170;9.978;2022-07-03T09:21:05;32.60;1.00
15241;DHT22;7723;52.170;9.978;2022-07-03T09:23:38;32.50;1.00
15241;DHT22;7723;52.170;9.978;2022-07-03T09:26:06;32.50;1.00
15241;DHT22;7723;52.170;9.978;2022-07-03T09:28:43;32.90;1.00
15241;DHT22;7723;52.170;9.978;2022-07-03T09:31:14;33.00;1.00
15241;DHT22;7723;52.170;9.978;2022-07-03T09:33:54;33.00;1.00
15241;DHT22;7723;52.170;9.978;2022-07-03T09:36:22;32.60;1.00
15241;DHT22;7723;52.170;9.978;2022-07-03T09:38:49;32.20;1.00
15241;DHT22;7723;52.170;9.978;2022-07-03T09:41:17;31.60;1.00
15241;DHT22;7723;52.170;9.978;2022-07-03T09:43:44;31.70;1.00
15241;DHT22;7723;52.170;9.978;2022-07-03T09:46:12;31.90;1.00
15241;DHT22;7723;52.170;9.978;2022-07-03T09:48:40;31.20;1.00
15241;DHT22;7723;52.170;9.978;2022-07-03T09:51:16;31.30;1.00
15241;DHT22;7723;52.170;9.978;2022-07-03T09:53:53;32.10;1.00
15241;DHT22;7723;52.170;9.978;2022-07-03T09:56:22;31.60;1.00
15241;DHT22;7723;52.170;9.978;2022-07-03T09:59:07;31.60;1.00
15241;DHT22;7723;52.170;9.978;2022-07-03T10:01:37;31.50;1.00
15241;DHT22;7723;52.170;9.978;2022-07-03T10:04:15;32.20;1.00
15241;DHT22;7723;52.170;9.978;2022-07-03T10:06:54;32.30;1.00
15241;DHT22;7723;52.170;9.978;2022-07-03T10:09:23;32.70;1.00
15241;DHT22;7723;52.170;9.978;2022-07-03T10:11:51;33.00;1.00
15241;DHT22;7723;52.170;9.978;2022-07-03T10:14:20;31.80;1.00
15241;DHT22;7723;52.170;9.978;2022-07-03T10:16:49;31.40;1.00
15241;DHT22;7723;52.170;9.978;2022-07-03T10:19:19;31.40;1.00
15241;DHT22;7723;52.170;9.978;2022-07-03T10:21:50;31.50;1.00
15241;DHT22;7723;52.170;9.978;2022-07-03T10:24:21;31.50;1.00
15241;DHT22;7723;52.170;9.978;2022-07-03T10:26:49;31.30;1.00
15241;DHT22;7723;52.170;9.978;2022-07-03T10:29:17;31.50;1.00
15241;DHT22;7723;52.170;9.978;2022-07-03T10:31:48;31.40;1.00
15241;DHT22;7723;52.170;9.978;2022-07-03T10:34:17;31.50;1.00
15241;DHT22;7723;52.170;9.978;2022-07-03T10:36:47;31.50;1.00
15241;DHT22;7723;52.170;9.978;2022-07-03T10:39:25;31.90;1.00
15241;DHT22;7723;52.170;9.978;2022-07-03T10:41:56;31.60;1.00
15241;DHT22;7723;52.170;9.978;2022-07-03T10:45:07;31.40;1.00
15241;DHT22;7723;52.170;9.978;2022-07-03T10:47:42;31.10;1.00
15241;DHT22;7723;52.170;9.978;2022-07-03T10:50:11;30.80;1.00
15241;DHT22;7723;52.170;9.978;2022-07-03T10:52:39;29.90;1.00
15241;DHT22;7723;52.170;9.978;2022-07-03T10:55:07;29.60;1.00
15241;DHT22;7723;52.170;9.978;2022-07-03T10:57:35;29.40;1.00
15241;DHT22;7723;52.170;9.978;2022-07-03T11:00:17;29.00;1.00
15241;DHT22;7723;52.170;9.978;2022-07-03T11:02:48;29.20;1.00
15241;DHT22;7723;52.170;9.978;2022-07-03T11:05:21;29.00;1.00
15241;DHT22;7723;52.170;9.978;2022-07-03T11:08:06;29.00;1.00
15241;DHT22;7723;52.170;9.978;2022-07-03T11:10:35;29.20;1.00
15241;DHT22;7723;52.170;9.978;2022-07-03T11:13:20;29.50;1.00
15241;DHT22;7723;52.170;9.978;2022-07-03T11:15:49;29.70;1.00
15241;DHT22;7723;52.170;9.978;2022-07-03T11:18:36;29.90;1.00
15241;DHT22;7723;52.170;9.978;2022-07-03T11:21:21;30.20;1.00
15241;DHT22;7723;52.170;9.978;2022-07-03T11:24:14;30.20;1.00
15241;DHT22;7723;52.170;9.978;2022-07-03T11:26:41;30.10;1.00
15241;DHT22;7723;52.170;9.978;2022-07-03T11:29:25;29.80;1.00
15241;DHT22;7723;52.170;9.978;2022-07-03T11:31:52;30.00;1.00
15241;DHT22;7723;52.170;9.978;2022-07-03T11:34:21;30.20;1.00
15241;DHT22;7723;52.170;9.978;2022-07-03T11:36:48;30.30;1.00
15241;DHT22;7723;52.170;9.978;2022-07-03T11:39:19;29.70;1.00
15241;DHT22;7723;52.170;9.978;2022-07-03T11:41:47;29.10;1.00
15241;DHT22;7723;52.170;9.978;2022-07-03T11:44:19;29.00;1.00
15241;DHT22;7723;52.170;9.978;2022-07-03T11:46:49;28.80;1.00
15241;DHT22;7723;52.170;9.978;2022-07-03T11:49:18;28.80;1.00
15241;DHT22;7723;52.170;9.978;2022-07-03T11:51:57;28.80;1.00
15241;DHT22;7723;52.170;9.978;2022-07-03T11:54:24;29.10;1.00
15241;DHT22;7723;52.170;9.978;2022-07-03T11:56:52;29.30;1.00
15241;DHT22;7723;52.170;9.978;2022-07-03T11:59:19;29.40;1.00
15241;DHT22;7723;52.170;9.978;2022-07-03T12:01:46;29.10;1.00
15241;DHT22;7723;52.170;9.978;2022-07-03T12:04:15;28.70;1.00
15241;DHT22;7723;52.170;9.978;2022-07-03T12:06:44;28.40;1.00
15241;DHT22;7723;52.170;9.978;2022-07-03T12:09:20;28.40;1.00
15241;DHT22;7723;52.170;9.978;2022-07-03T12:11:55;28.30;1.00
15241;DHT22;7723;52.170;9.978;2022-07-03T12:14:43;28.20;1.00
15241;DHT22;7723;52.170;9.978;2022-07-03T12:17:11;28.20;1.00
15241;DHT22;7723;52.170;9.978;2022-07-03T12:19:44;28.00;1.00
15241;DHT22;7723;52.170;9.978;2022-07-03T12:22:12;28.20;1.00
15241;DHT22;7723;52.170;9.978;2022-07-03T12:24:41;28.50;1.00
15241;DHT22;7723;52.170;9.978;2022-07-03T12:27:08;29.00;1.00
15241;DHT22;7723;52.170;9.978;2022-07-03T12:29:35;29.50;1.00
15241;DHT22;7723;52.170;9.978;2022-07-03T12:32:08;29.60;1.00
15241;DHT22;7723;52.170;9.978;2022-07-03T12:34:37;29.40;1.00
15241;DHT22;7723;52.170;9.978;2022-07-03T12:37:04;29.20;1.00
15241;DHT22;7723;52.170;9.978;2022-07-03T12:39:45;29.20;1.00
15241;DHT22;7723;52.170;9.978;2022-07-03T12:42:16;29.30;1.00
15241;DHT22;7723;52.170;9.978;2022-07-03T12:44:55;29.40;1.00
15241;DHT22;7723;52.170;9.978;2022-07-03T12:47:23;29.40;1.00
15241;DHT22;7723;52.170;9.978;2022-07-03T12:49:55;29.20;1.00
15241;DHT22;7723;52.170;9.978;2022-07-03T12:52:23;29.00;1.00
15241;DHT22;7723;52.170;9.978;2022-07-03T12:54:52;28.80;1.00
15241;DHT22;7723;52.170;9.978;2022-07-03T12:57:21;28.70;1.00
15241;DHT22;7723;52.170;9.978;2022-07-03T13:00:08;28.50;1.00
15241;DHT22;7723;52.170;9.978;2022-07-03T13:02:36;28.70;1.00
15241;DHT22;7723;52.170;9.978;2022-07-03T13:05:14;28.80;1.00
15241;DHT22;7723;52.170;9.978;2022-07-03T13:07:43;28.90;1.00
15241;DHT22;7723;52.170;9.978;2022-07-03T13:10:13;29.00;1.00
15241;DHT22;7723;52.170;9.978;2022-07-03T13:12:50;29.20;1.00
15241;DHT22;7723;52.170;9.978;2022-07-03T13:15:25;29.30;1.00
15241;DHT22;7723;52.170;9.978;2022-07-03T13:18:01;29.20;1.00
15241;DHT22;7723;52.170;9.978;2022-07-03T13:20:30;29.30;1.00
15241;DHT22;7723;52.170;9.978;2022-07-03T13:22:58;29.40;1.00
15241;DHT22;7723;52.170;9.978;2022-07-03T13:25:27;29.40;1.00
15241;DHT22;7723;52.170;9.978;2022-07-03T13:28:03;29.20;1.00
15241;DHT22;7723;52.170;9.978;2022-07-03T13:30:31;29.10;1.00
15241;DHT22;7723;52.170;9.978;2022-07-03T13:32:58;29.40;1.00
15241;DHT22;7723;52.170;9.978;2022-07-03T13:35:25;29.60;1.00
15241;DHT22;7723;52.170;9.978;2022-07-03T13:37:52;29.60;1.00
15241;DHT22;7723;52.170;9.978;2022-07-03T13:40:19;29.80;1.00
15241;DHT22;7723;52.170;9.978;2022-07-03T13:42:48;29.70;1.00
15241;DHT22;7723;52.170;9.978;2022-07-03T13:45:16;29.90;1.00
15241;DHT22;7723;52.170;9.978;2022-07-03T13:47:43;29.80;1.00
15241;DHT22;7723;52.170;9.978;2022-07-03T13:50:11;29.80;1.00
15241;DHT22;7723;52.170;9.978;2022-07-03T13:52:38;29.50;1.00
15241;DHT22;7723;52.170;9.978;2022-07-03T13:55:06;29.40;1.00
15241;DHT22;7723;52.170;9.978;2022-07-03T13:57:33;29.20;1.00
15241;DHT22;7723;52.170;9.978;2022-07-03T14:00:02;29.20;1.00
15241;DHT22;7723;52.170;9.978;2022-07-03T14:02:29;29.00;1.00
15241;DHT22;7723;52.170;9.978;2022-07-03T14:04:56;29.00;1.00
15241;DHT22;7723;52.170;9.978;2022-07-03T14:07:23;28.90;1.00
15241;DHT22;7723;52.170;9.978;2022-07-03T14:09:51;28.80;1.00
15241;DHT22;7723;52.170;9.978;2022-07-03T14:12:18;28.80;1.00
15241;DHT22;7723;52.170;9.978;2022-07-03T14:14:45;28.80;1.00
15241;DHT22;7723;52.170;9.978;2022-07-03T14:17:13;28.80;1.00
15241;DHT22;7723;52.170;9.978;2022-07-03T14:19:40;28.80;1.00
15241;DHT22;7723;52.170;9.978;2022-07-03T14:22:07;28.70;1.00
15241;DHT22;7723;52.170;9.978;2022-07-03T14:24:35;28.70;1.00
15241;DHT22;7723;52.170;9.978;2022-07-03T14:27:02;28.60;1.00
15241;DHT22;7723;52.170;9.978;2022-07-03T14:30:01;28.50;1.00
15241;DHT22;7723;52.170;9.978;2022-07-03T14:32:53;28.50;1.00
15241;DHT22;7723;52.170;9.978;2022-07-03T14:35:20;28.70;1.00
15241;DHT22;7723;52.170;9.978;2022-07-03T14:37:47;28.70;1.00
15241;DHT22;7723;52.170;9.978;2022-07-03T14:40:14;28.70;1.00
15241;DHT22;7723;52.170;9.978;2022-07-03T14:42:41;28.50;1.00
15241;DHT22;7723;52.170;9.978;2022-07-03T14:45:09;28.70;1.00
15241;DHT22;7723;52.170;9.978;2022-07-03T14:47:36;28.80;1.00
15241;DHT22;7723;52.170;9.978;2022-07-03T14:50:06;28.90;1.00
15241;DHT22;7723;52.170;9.978;2022-07-03T14:52:33;28.80;1.00
15241;DHT22;7723;52.170;9.978;2022-07-03T14:55:00;28.80;1.00
15241;DHT22;7723;52.170;9.978;2022-07-03T14:57:35;28.80;1.00
15241;DHT22;7723;52.170;9.978;2022-07-03T15:00:06;28.80;1.00
15241;DHT22;7723;52.170;9.978;2022-07-03T15:02:47;28.90;1.00
15241;DHT22;7723;52.170;9.978;2022-07-03T15:05:17;28.70;1.00
15241;DHT22;7723;52.170;9.978;2022-07-03T15:07:52;28.70;1.00
15241;DHT22;7723;52.170;9.978;2022-07-03T15:10:23;28.90;1.00
15241;DHT22;7723;52.170;9.978;2022-07-03T15:12:54;28.90;1.00
15241;DHT22;7723;52.170;9.978;2022-07-03T15:15:22;28.60;1.00
15241;DHT22;7723;52.170;9.978;2022-07-03T15:17:51;28.60;1.00
15241;DHT22;7723;52.170;9.978;2022-07-03T15:20:20;28.40;1.00
15241;DHT22;7723;52.170;9.978;2022-07-03T15:22:48;28.40;1.00
15241;DHT22;7723;52.170;9.978;2022-07-03T15:25:17;28.70;1.00
15241;DHT22;7723;52.170;9.978;2022-07-03T15:27:48;29.10;1.00
15241;DHT22;7723;52.170;9.978;2022-07-03T15:30:16;29.00;1.00
15241;DHT22;7723;52.170;9.978;2022-07-03T15:32:46;28.90;1.00
15241;DHT22;7723;52.170;9.978;2022-07-03T15:35:13;28.80;1.00
15241;DHT22;7723;52.170;9.978;2022-07-03T15:38:01;28.40;1.00
15241;DHT22;7723;52.170;9.978;2022-07-03T15:40:32;28.30;1.00
15241;DHT22;7723;52.170;9.978;2022-07-03T15:43:12;28.40;1.00
15241;DHT22;7723;52.170;9.978;2022-07-03T15:45:47;28.30;1.00
15241;DHT22;7723;52.170;9.978;2022-07-03T15:48:23;28.40;1.00
15241;DHT22;7723;52.170;9.978;2022-07-03T15:50:59;28.30;1.00
15241;DHT22;7723;52.170;9.978;2022-07-03T15:53:36;28.20;1.00
15241;DHT22;7723;52.170;9.978;2022-07-03T15:56:06;28.00;1.00
15241;DHT22;7723;52.170;9.978;2022-07-03T15:58:36;27.80;1.00
15241;DHT22;7723;52.170;9.978;2022-07-03T16:01:09;27.70;1.00
15241;DHT22;7723;52.170;9.978;2022-07-03T16:04:01;27.60;1.00
15241;DHT22;7723;52.170;9.978;2022-07-03T16:06:30;27.50;1.00
15241;DHT22;7723;52.170;9.978;2022-07-03T16:09:00;27.40;1.00
15241;DHT22;7723;52.170;9.978;2022-07-03T16:11:28;27.30;1.00
15241;DHT22;7723;52.170;9.978;2022-07-03T16:13:57;27.30;1.00
15241;DHT22;7723;52.170;9.978;2022-07-03T16:16:28;27.40;1.00
15241;DHT22;7723;52.170;9.978;2022-07-03T16:18:58;27.40;1.00